Hyde Park, UT (84318)

6:11 PM MDT on September 03, 2015 (GMT -0600)
MesoWest | | Change Station
CLOSE
Current Station
Personal Weather Station
Location: Logan, UT
Elevation: 4875 ft
Nearby Weather Stations

Elev 4875 ft 41.77 °N, 111.79 °W | Updated 41 minutes ago

Partly Cloudy
Partly Cloudy
82 °F
Feels Like 80 °F
N
3
Wind Variable Wind from SSE
Gusts 9.0 mph

Today
High -- | Low -- °F
--% Chance of Precip.
Yesterday
High -- | Low -- °F
Precip. -- in
6:54 AM 7:57 PM
Waning Gibbous, 65% visible
Pressure 29.58 in
Visibility 10.0 miles
Clouds Few 11000 ft
Heat Index 80 °F
Dew Point 40 °F
Humidity 22%
Rainfall in
Snow Depth Not available.
UV 2 out of 12
Pollen 8.80 out of 12
Air Quality Not available.
Flu Activity Not available.
METAR KLGU 032351Z AUTO 21007KT 10SM FEW110 28/03 A2977 RMK AO2 LTG DSNT SW-NW SLP016 T02830033 10306 20283 58023
Pressure 29.58 in
Visibility 10.0 miles
Clouds Few 11000 ft
Heat Index 80 °F
Dew Point 40 °F
Humidity 22%
Rainfall in
Snow Depth Not available.
UV 2 out of 12
Pollen 8.80 out of 12
Air Quality Not available.
Flu Activity Not available.
METAR KLGU 032351Z AUTO 21007KT 10SM FEW110 28/03 A2977 RMK AO2 LTG DSNT SW-NW SLP016 T02830033 10306 20283 58023

10-Day Weather Forecast

×

Almanac

Astronomy

Sep. 03, 2015 Rise Set
Actual Time
Civil Twilight
Nautical Twilight
Astronomical Twilight
Moon
Length of Visible Light
Length of Day
Tomorrow will be .
, % of the Moon is Illuminated

Today's Extremes

State Highs State Lows

Community

WunderPhotos

Upload Photos

1,852,068 photos uploaded!

WunderBlogs® & News

Nearby

Air Quality

  Air Quality AQ Index Pollutant
Not available.

Snow Depth

Station Depth Elevation

Earthquake Activity

City Distance Mag. Time & Date
Minimum magnitude displayed is 2.5.

Coastal Water Temperatures

Place Temperature

Stations

Nearby Weather Stations

Station Location Temp. Windchill Dew Point Humidity Wind Precip. Elev Updated Type